sensor_id;sensor_type;location;lat;lon;timestamp;P1;durP1;ratioP1;P2;durP2;ratioP2
14205;SDS011;7186;48.800;9.216;2023-06-22T00:01:53;10.80;;;7.90;;
14205;SDS011;7186;48.800;9.216;2023-06-22T00:04:19;16.33;;;8.20;;
14205;SDS011;7186;48.800;9.216;2023-06-22T00:06:44;10.57;;;7.90;;
14205;SDS011;7186;48.800;9.216;2023-06-22T00:09:09;11.13;;;8.47;;
14205;SDS011;7186;48.800;9.216;2023-06-22T00:11:35;11.23;;;8.30;;
14205;SDS011;7186;48.800;9.216;2023-06-22T00:14:01;10.43;;;7.93;;
14205;SDS011;7186;48.800;9.216;2023-06-22T00:16:26;10.00;;;8.17;;
14205;SDS011;7186;48.800;9.216;2023-06-22T00:18:51;15.13;;;8.53;;
14205;SDS011;7186;48.800;9.216;2023-06-22T00:21:16;12.00;;;8.27;;
14205;SDS011;7186;48.800;9.216;2023-06-22T00:23:41;11.87;;;8.70;;
14205;SDS011;7186;48.800;9.216;2023-06-22T00:26:07;9.70;;;7.87;;
14205;SDS011;7186;48.800;9.216;2023-06-22T00:28:33;13.10;;;8.43;;
14205;SDS011;7186;48.800;9.216;2023-06-22T00:30:58;10.97;;;8.43;;
14205;SDS011;7186;48.800;9.216;2023-06-22T00:33:25;12.43;;;8.63;;
14205;SDS011;7186;48.800;9.216;2023-06-22T00:35:50;10.90;;;8.47;;
14205;SDS011;7186;48.800;9.216;2023-06-22T00:38:17;12.10;;;8.33;;
14205;SDS011;7186;48.800;9.216;2023-06-22T00:40:43;14.40;;;9.50;;
14205;SDS011;7186;48.800;9.216;2023-06-22T00:43:08;11.80;;;9.43;;
14205;SDS011;7186;48.800;9.216;2023-06-22T00:45:33;13.60;;;8.60;;
14205;SDS011;7186;48.800;9.216;2023-06-22T00:47:59;13.27;;;8.70;;
14205;SDS011;7186;48.800;9.216;2023-06-22T00:50:25;14.17;;;8.97;;
14205;SDS011;7186;48.800;9.216;2023-06-22T00:52:51;12.80;;;9.13;;
14205;SDS011;7186;48.800;9.216;2023-06-22T00:55:17;12.53;;;9.23;;
14205;SDS011;7186;48.800;9.216;2023-06-22T00:57:44;11.87;;;8.70;;
14205;SDS011;7186;48.800;9.216;2023-06-22T01:00:10;11.80;;;8.70;;
14205;SDS011;7186;48.800;9.216;2023-06-22T01:02:41;11.27;;;8.73;;
14205;SDS011;7186;48.800;9.216;2023-06-22T01:05:07;12.30;;;9.27;;
14205;SDS011;7186;48.800;9.216;2023-06-22T01:07:35;11.47;;;9.53;;
14205;SDS011;7186;48.800;9.216;2023-06-22T01:12:51;12.00;;;8.93;;
14205;SDS011;7186;48.800;9.216;2023-06-22T01:15:25;12.17;;;8.33;;
14205;SDS011;7186;48.800;9.216;2023-06-22T01:17:53;12.43;;;8.47;;
14205;SDS011;7186;48.800;9.216;2023-06-22T01:20:18;10.87;;;8.60;;
14205;SDS011;7186;48.800;9.216;2023-06-22T01:25:20;15.07;;;9.07;;
14205;SDS011;7186;48.800;9.216;2023-06-22T01:30:43;12.17;;;8.80;;
14205;SDS011;7186;48.800;9.216;2023-06-22T01:33:10;13.33;;;9.23;;
14205;SDS011;7186;48.800;9.216;2023-06-22T01:35:37;10.83;;;8.87;;
14205;SDS011;7186;48.800;9.216;2023-06-22T01:38:03;11.97;;;9.07;;
14205;SDS011;7186;48.800;9.216;2023-06-22T01:40:28;13.90;;;9.93;;
14205;SDS011;7186;48.800;9.216;2023-06-22T01:42:56;10.13;;;8.80;;
14205;SDS011;7186;48.800;9.216;2023-06-22T01:45:21;10.57;;;8.67;;
14205;SDS011;7186;48.800;9.216;2023-06-22T01:47:47;13.00;;;9.03;;
14205;SDS011;7186;48.800;9.216;2023-06-22T01:50:12;13.47;;;9.50;;
14205;SDS011;7186;48.800;9.216;2023-06-22T01:52:37;12.40;;;8.77;;
14205;SDS011;7186;48.800;9.216;2023-06-22T01:55:02;12.10;;;8.83;;
14205;SDS011;7186;48.800;9.216;2023-06-22T01:57:29;13.40;;;9.43;;
14205;SDS011;7186;48.800;9.216;2023-06-22T02:00:02;13.67;;;9.60;;
14205;SDS011;7186;48.800;9.216;2023-06-22T02:02:31;11.20;;;8.50;;
14205;SDS011;7186;48.800;9.216;2023-06-22T02:05:00;11.57;;;9.00;;
14205;SDS011;7186;48.800;9.216;2023-06-22T02:07:28;14.27;;;9.83;;
14205;SDS011;7186;48.800;9.216;2023-06-22T02:09:57;11.70;;;9.20;;
14205;SDS011;7186;48.800;9.216;2023-06-22T02:12:23;12.67;;;9.10;;
14205;SDS011;7186;48.800;9.216;2023-06-22T02:14:49;15.20;;;9.67;;
14205;SDS011;7186;48.800;9.216;2023-06-22T02:17:17;12.37;;;9.23;;
14205;SDS011;7186;48.800;9.216;2023-06-22T02:19:42;10.97;;;9.10;;
14205;SDS011;7186;48.800;9.216;2023-06-22T02:22:07;14.80;;;9.87;;
14205;SDS011;7186;48.800;9.216;2023-06-22T02:24:33;11.93;;;9.30;;
14205;SDS011;7186;48.800;9.216;2023-06-22T02:26:58;13.60;;;9.67;;
14205;SDS011;7186;48.800;9.216;2023-06-22T02:29:24;11.03;;;8.67;;
14205;SDS011;7186;48.800;9.216;2023-06-22T02:31:49;14.27;;;9.40;;
14205;SDS011;7186;48.800;9.216;2023-06-22T02:34:14;14.80;;;9.87;;
14205;SDS011;7186;48.800;9.216;2023-06-22T02:36:43;12.53;;;8.67;;
14205;SDS011;7186;48.800;9.216;2023-06-22T02:39:15;12.17;;;9.37;;
14205;SDS011;7186;48.800;9.216;2023-06-22T02:41:41;12.50;;;8.70;;
14205;SDS011;7186;48.800;9.216;2023-06-22T02:44:07;11.27;;;8.10;;
14205;SDS011;7186;48.800;9.216;2023-06-22T02:46:32;12.63;;;9.13;;
14205;SDS011;7186;48.800;9.216;2023-06-22T02:48:57;14.60;;;9.83;;
14205;SDS011;7186;48.800;9.216;2023-06-22T02:51:22;12.40;;;9.43;;
14205;SDS011;7186;48.800;9.216;2023-06-22T02:53:48;11.30;;;9.23;;
14205;SDS011;7186;48.800;9.216;2023-06-22T02:56:13;10.20;;;8.87;;
14205;SDS011;7186;48.800;9.216;2023-06-22T02:58:38;13.93;;;9.50;;
14205;SDS011;7186;48.800;9.216;2023-06-22T03:01:05;12.07;;;9.57;;
14205;SDS011;7186;48.800;9.216;2023-06-22T03:03:30;14.53;;;10.20;;
14205;SDS011;7186;48.800;9.216;2023-06-22T03:05:55;13.83;;;9.70;;
14205;SDS011;7186;48.800;9.216;2023-06-22T03:08:20;14.80;;;9.90;;
14205;SDS011;7186;48.800;9.216;2023-06-22T03:10:46;15.80;;;9.77;;
14205;SDS011;7186;48.800;9.216;2023-06-22T03:13:11;12.07;;;9.40;;
14205;SDS011;7186;48.800;9.216;2023-06-22T03:15:36;11.83;;;9.33;;
14205;SDS011;7186;48.800;9.216;2023-06-22T03:18:01;13.17;;;9.53;;
14205;SDS011;7186;48.800;9.216;2023-06-22T03:20:26;11.30;;;9.37;;
14205;SDS011;7186;48.800;9.216;2023-06-22T03:22:58;13.20;;;9.67;;
14205;SDS011;7186;48.800;9.216;2023-06-22T03:25:23;13.03;;;9.07;;
14205;SDS011;7186;48.800;9.216;2023-06-22T03:27:48;13.53;;;9.37;;
14205;SDS011;7186;48.800;9.216;2023-06-22T03:30:13;13.70;;;9.00;;
14205;SDS011;7186;48.800;9.216;2023-06-22T03:32:39;14.37;;;9.50;;
14205;SDS011;7186;48.800;9.216;2023-06-22T03:35:04;15.87;;;10.13;;
14205;SDS011;7186;48.800;9.216;2023-06-22T03:37:31;17.17;;;10.03;;
14205;SDS011;7186;48.800;9.216;2023-06-22T03:39:56;11.90;;;9.27;;
14205;SDS011;7186;48.800;9.216;2023-06-22T03:42:21;10.47;;;9.10;;
14205;SDS011;7186;48.800;9.216;2023-06-22T03:44:46;12.93;;;9.50;;
14205;SDS011;7186;48.800;9.216;2023-06-22T03:47:12;13.57;;;9.23;;
14205;SDS011;7186;48.800;9.216;2023-06-22T03:49:37;13.23;;;9.67;;
14205;SDS011;7186;48.800;9.216;2023-06-22T03:52:02;14.10;;;9.50;;
14205;SDS011;7186;48.800;9.216;2023-06-22T03:54:31;14.63;;;10.30;;
14205;SDS011;7186;48.800;9.216;2023-06-22T03:56:56;14.17;;;9.37;;
14205;SDS011;7186;48.800;9.216;2023-06-22T03:59:22;15.23;;;9.63;;
14205;SDS011;7186;48.800;9.216;2023-06-22T04:01:47;11.90;;;9.17;;
14205;SDS011;7186;48.800;9.216;2023-06-22T04:04:13;14.20;;;9.87;;
14205;SDS011;7186;48.800;9.216;2023-06-22T04:06:39;15.20;;;9.60;;
14205;SDS011;7186;48.800;9.216;2023-06-22T04:09:05;11.67;;;9.50;;
14205;SDS011;7186;48.800;9.216;2023-06-22T04:11:30;15.53;;;9.37;;
14205;SDS011;7186;48.800;9.216;2023-06-22T04:13:57;14.43;;;9.67;;
14205;SDS011;7186;48.800;9.216;2023-06-22T04:16:22;11.63;;;8.83;;
14205;SDS011;7186;48.800;9.216;2023-06-22T04:18:48;13.70;;;10.23;;
14205;SDS011;7186;48.800;9.216;2023-06-22T04:21:13;14.80;;;9.53;;
14205;SDS011;7186;48.800;9.216;2023-06-22T04:23:38;12.83;;;10.23;;
14205;SDS011;7186;48.800;9.216;2023-06-22T04:26:04;14.03;;;10.80;;
14205;SDS011;7186;48.800;9.216;2023-06-22T04:28:29;12.07;;;9.77;;
14205;SDS011;7186;48.800;9.216;2023-06-22T04:30:54;13.40;;;10.33;;
14205;SDS011;7186;48.800;9.216;2023-06-22T04:33:23;16.03;;;10.63;;
14205;SDS011;7186;48.800;9.216;2023-06-22T04:35:48;13.50;;;9.93;;
14205;SDS011;7186;48.800;9.216;2023-06-22T04:38:13;13.10;;;9.90;;
14205;SDS011;7186;48.800;9.216;2023-06-22T04:40:39;15.03;;;10.10;;
14205;SDS011;7186;48.800;9.216;2023-06-22T04:43:04;14.17;;;9.87;;
14205;SDS011;7186;48.800;9.216;2023-06-22T04:45:31;14.90;;;9.87;;
14205;SDS011;7186;48.800;9.216;2023-06-22T04:47:56;16.37;;;10.83;;
14205;SDS011;7186;48.800;9.216;2023-06-22T04:50:21;13.77;;;10.60;;
14205;SDS011;7186;48.800;9.216;2023-06-22T04:52:48;13.47;;;10.50;;
14205;SDS011;7186;48.800;9.216;2023-06-22T04:55:14;20.27;;;10.50;;
14205;SDS011;7186;48.800;9.216;2023-06-22T04:57:43;13.03;;;9.80;;
14205;SDS011;7186;48.800;9.216;2023-06-22T05:00:14;13.37;;;10.03;;
14205;SDS011;7186;48.800;9.216;2023-06-22T05:02:42;13.30;;;9.77;;
14205;SDS011;7186;48.800;9.216;2023-06-22T05:05:07;14.93;;;9.77;;
14205;SDS011;7186;48.800;9.216;2023-06-22T05:07:36;14.90;;;9.37;;
14205;SDS011;7186;48.800;9.216;2023-06-22T05:10:02;12.47;;;9.53;;
14205;SDS011;7186;48.800;9.216;2023-06-22T05:12:27;13.17;;;9.03;;
14205;SDS011;7186;48.800;9.216;2023-06-22T05:14:53;15.47;;;9.30;;
14205;SDS011;7186;48.800;9.216;2023-06-22T05:17:19;11.43;;;8.93;;
14205;SDS011;7186;48.800;9.216;2023-06-22T05:19:44;12.17;;;8.77;;
14205;SDS011;7186;48.800;9.216;2023-06-22T05:22:13;11.43;;;8.17;;
14205;SDS011;7186;48.800;9.216;2023-06-22T05:24:38;10.83;;;8.63;;
14205;SDS011;7186;48.800;9.216;2023-06-22T05:27:04;10.93;;;8.43;;
14205;SDS011;7186;48.800;9.216;2023-06-22T05:29:29;13.20;;;9.53;;
14205;SDS011;7186;48.800;9.216;2023-06-22T05:31:54;11.83;;;8.50;;
14205;SDS011;7186;48.800;9.216;2023-06-22T05:34:19;10.67;;;8.07;;
14205;SDS011;7186;48.800;9.216;2023-06-22T05:36:45;13.03;;;8.63;;
14205;SDS011;7186;48.800;9.216;2023-06-22T05:39:11;14.73;;;9.40;;
14205;SDS011;7186;48.800;9.216;2023-06-22T05:41:37;11.30;;;8.30;;
14205;SDS011;7186;48.800;9.216;2023-06-22T05:44:02;13.03;;;8.03;;
14205;SDS011;7186;48.800;9.216;2023-06-22T05:46:28;9.47;;;7.70;;
14205;SDS011;7186;48.800;9.216;2023-06-22T05:48:53;10.63;;;7.43;;
14205;SDS011;7186;48.800;9.216;2023-06-22T05:51:18;13.67;;;8.13;;
14205;SDS011;7186;48.800;9.216;2023-06-22T05:53:44;12.30;;;7.83;;
14205;SDS011;7186;48.800;9.216;2023-06-22T05:56:09;11.33;;;7.30;;
14205;SDS011;7186;48.800;9.216;2023-06-22T05:58:35;10.77;;;7.80;;
14205;SDS011;7186;48.800;9.216;2023-06-22T06:01:00;10.37;;;7.43;;
14205;SDS011;7186;48.800;9.216;2023-06-22T06:03:25;13.17;;;8.53;;
14205;SDS011;7186;48.800;9.216;2023-06-22T06:05:53;17.00;;;9.20;;
14205;SDS011;7186;48.800;9.216;2023-06-22T06:08:19;13.27;;;7.90;;
14205;SDS011;7186;48.800;9.216;2023-06-22T06:10:44;14.43;;;7.47;;
14205;SDS011;7186;48.800;9.216;2023-06-22T06:13:09;11.47;;;7.47;;
14205;SDS011;7186;48.800;9.216;2023-06-22T06:15:35;60.63;;;18.83;;
14205;SDS011;7186;48.800;9.216;2023-06-22T06:18:00;13.37;;;9.47;;
14205;SDS011;7186;48.800;9.216;2023-06-22T06:20:31;12.57;;;8.70;;
14205;SDS011;7186;48.800;9.216;2023-06-22T06:22:56;14.47;;;9.33;;
14205;SDS011;7186;48.800;9.216;2023-06-22T06:25:22;10.77;;;8.27;;
14205;SDS011;7186;48.800;9.216;2023-06-22T06:27:47;14.03;;;9.13;;
14205;SDS011;7186;48.800;9.216;2023-06-22T06:30:14;11.93;;;8.60;;
14205;SDS011;7186;48.800;9.216;2023-06-22T06:32:39;11.80;;;8.03;;
14205;SDS011;7186;48.800;9.216;2023-06-22T06:35:08;11.60;;;7.97;;
14205;SDS011;7186;48.800;9.216;2023-06-22T06:37:35;11.40;;;7.60;;
14205;SDS011;7186;48.800;9.216;2023-06-22T06:40:01;13.10;;;8.60;;
14205;SDS011;7186;48.800;9.216;2023-06-22T06:42:26;9.33;;;7.80;;
14205;SDS011;7186;48.800;9.216;2023-06-22T06:44:51;12.10;;;7.87;;
14205;SDS011;7186;48.800;9.216;2023-06-22T06:47:16;10.50;;;7.70;;
14205;SDS011;7186;48.800;9.216;2023-06-22T06:49:42;13.23;;;8.23;;
14205;SDS011;7186;48.800;9.216;2023-06-22T06:52:07;10.63;;;7.27;;
14205;SDS011;7186;48.800;9.216;2023-06-22T06:54:33;13.43;;;6.83;;
14205;SDS011;7186;48.800;9.216;2023-06-22T06:56:58;9.30;;;7.33;;
14205;SDS011;7186;48.800;9.216;2023-06-22T06:59:23;10.00;;;7.50;;
14205;SDS011;7186;48.800;9.216;2023-06-22T07:01:48;9.50;;;7.10;;
14205;SDS011;7186;48.800;9.216;2023-06-22T07:04:14;9.87;;;7.93;;
14205;SDS011;7186;48.800;9.216;2023-06-22T07:06:39;9.07;;;6.50;;
14205;SDS011;7186;48.800;9.216;2023-06-22T07:09:04;11.30;;;6.40;;
14205;SDS011;7186;48.800;9.216;2023-06-22T07:11:30;9.60;;;6.73;;
14205;SDS011;7186;48.800;9.216;2023-06-22T07:13:55;9.30;;;6.70;;
14205;SDS011;7186;48.800;9.216;2023-06-22T07:16:20;10.77;;;6.60;;
14205;SDS011;7186;48.800;9.216;2023-06-22T07:18:46;10.87;;;6.30;;
14205;SDS011;7186;48.800;9.216;2023-06-22T07:21:11;9.50;;;5.97;;
14205;SDS011;7186;48.800;9.216;2023-06-22T07:23:36;11.33;;;7.63;;
14205;SDS011;7186;48.800;9.216;2023-06-22T07:26:01;12.07;;;6.83;;
14205;SDS011;7186;48.800;9.216;2023-06-22T07:28:27;11.53;;;6.57;;
14205;SDS011;7186;48.800;9.216;2023-06-22T07:30:52;10.10;;;6.73;;
14205;SDS011;7186;48.800;9.216;2023-06-22T07:33:17;10.87;;;6.23;;
14205;SDS011;7186;48.800;9.216;2023-06-22T07:35:43;8.80;;;6.77;;
14205;SDS011;7186;48.800;9.216;2023-06-22T07:38:09;12.87;;;6.50;;
14205;SDS011;7186;48.800;9.216;2023-06-22T07:40:34;7.63;;;5.70;;
14205;SDS011;7186;48.800;9.216;2023-06-22T07:43:00;10.40;;;6.37;;
14205;SDS011;7186;48.800;9.216;2023-06-22T07:45:25;11.17;;;6.43;;
14205;SDS011;7186;48.800;9.216;2023-06-22T07:47:50;11.33;;;6.57;;
14205;SDS011;7186;48.800;9.216;2023-06-22T07:50:15;8.77;;;6.30;;
14205;SDS011;7186;48.800;9.216;2023-06-22T07:52:41;9.73;;;5.97;;
14205;SDS011;7186;48.800;9.216;2023-06-22T07:55:06;7.77;;;5.93;;
14205;SDS011;7186;48.800;9.216;2023-06-22T07:57:31;7.20;;;6.13;;
14205;SDS011;7186;48.800;9.216;2023-06-22T07:59:58;11.07;;;6.50;;
14205;SDS011;7186;48.800;9.216;2023-06-22T08:02:24;11.37;;;5.90;;
14205;SDS011;7186;48.800;9.216;2023-06-22T08:04:50;8.57;;;5.97;;
14205;SDS011;7186;48.800;9.216;2023-06-22T08:07:15;9.97;;;6.37;;
14205;SDS011;7186;48.800;9.216;2023-06-22T08:09:42;10.37;;;6.10;;
14205;SDS011;7186;48.800;9.216;2023-06-22T08:12:10;11.60;;;6.20;;
14205;SDS011;7186;48.800;9.216;2023-06-22T08:14:37;8.80;;;6.73;;
14205;SDS011;7186;48.800;9.216;2023-06-22T08:17:02;9.33;;;6.10;;
14205;SDS011;7186;48.800;9.216;2023-06-22T08:19:28;8.23;;;6.43;;
14205;SDS011;7186;48.800;9.216;2023-06-22T08:21:53;7.53;;;5.80;;
14205;SDS011;7186;48.800;9.216;2023-06-22T08:24:18;8.13;;;6.30;;
14205;SDS011;7186;48.800;9.216;2023-06-22T08:26:43;10.00;;;6.10;;
14205;SDS011;7186;48.800;9.216;2023-06-22T08:29:09;9.27;;;6.53;;
14205;SDS011;7186;48.800;9.216;2023-06-22T08:31:34;10.67;;;6.77;;
14205;SDS011;7186;48.800;9.216;2023-06-22T08:34:00;8.23;;;6.00;;
14205;SDS011;7186;48.800;9.216;2023-06-22T08:36:25;10.43;;;6.70;;
14205;SDS011;7186;48.800;9.216;2023-06-22T08:38:50;9.57;;;6.50;;
14205;SDS011;7186;48.800;9.216;2023-06-22T08:41:19;8.93;;;6.40;;
14205;SDS011;7186;48.800;9.216;2023-06-22T08:43:44;13.10;;;6.50;;
14205;SDS011;7186;48.800;9.216;2023-06-22T08:46:09;10.57;;;6.20;;
14205;SDS011;7186;48.800;9.216;2023-06-22T08:48:35;9.03;;;6.30;;
14205;SDS011;7186;48.800;9.216;2023-06-22T08:51:00;10.70;;;5.70;;
14205;SDS011;7186;48.800;9.216;2023-06-22T08:53:25;11.33;;;6.07;;
14205;SDS011;7186;48.800;9.216;2023-06-22T08:55:50;14.07;;;6.13;;
14205;SDS011;7186;48.800;9.216;2023-06-22T08:58:16;14.13;;;6.27;;
14205;SDS011;7186;48.800;9.216;2023-06-22T09:00:41;10.93;;;5.97;;
14205;SDS011;7186;48.800;9.216;2023-06-22T09:03:06;10.67;;;5.90;;
14205;SDS011;7186;48.800;9.216;2023-06-22T09:05:31;12.43;;;5.70;;
14205;SDS011;7186;48.800;9.216;2023-06-22T09:07:56;10.60;;;6.57;;
14205;SDS011;7186;48.800;9.216;2023-06-22T09:10:23;9.37;;;6.20;;
14205;SDS011;7186;48.800;9.216;2023-06-22T09:12:49;9.03;;;6.20;;
14205;SDS011;7186;48.800;9.216;2023-06-22T09:15:14;9.50;;;6.07;;
14205;SDS011;7186;48.800;9.216;2023-06-22T09:17:40;11.27;;;5.93;;
14205;SDS011;7186;48.800;9.216;2023-06-22T09:20:06;12.60;;;6.33;;
14205;SDS011;7186;48.800;9.216;2023-06-22T09:22:32;10.50;;;6.33;;
14205;SDS011;7186;48.800;9.216;2023-06-22T09:24:58;8.90;;;6.13;;
14205;SDS011;7186;48.800;9.216;2023-06-22T09:27:24;11.67;;;6.50;;
14205;SDS011;7186;48.800;9.216;2023-06-22T09:29:50;9.53;;;6.13;;
14205;SDS011;7186;48.800;9.216;2023-06-22T09:32:15;11.73;;;5.97;;
14205;SDS011;7186;48.800;9.216;2023-06-22T09:34:40;15.70;;;7.00;;
14205;SDS011;7186;48.800;9.216;2023-06-22T09:37:07;9.17;;;6.83;;
14205;SDS011;7186;48.800;9.216;2023-06-22T09:39:32;11.20;;;6.10;;
14205;SDS011;7186;48.800;9.216;2023-06-22T09:41:58;12.07;;;6.60;;
14205;SDS011;7186;48.800;9.216;2023-06-22T09:44:24;10.37;;;6.37;;
14205;SDS011;7186;48.800;9.216;2023-06-22T09:46:49;12.87;;;6.33;;
14205;SDS011;7186;48.800;9.216;2023-06-22T09:49:14;12.00;;;7.00;;
14205;SDS011;7186;48.800;9.216;2023-06-22T09:51:39;11.30;;;7.37;;
14205;SDS011;7186;48.800;9.216;2023-06-22T09:54:05;11.57;;;7.17;;
14205;SDS011;7186;48.800;9.216;2023-06-22T09:56:30;15.70;;;6.80;;
14205;SDS011;7186;48.800;9.216;2023-06-22T09:58:57;9.17;;;5.77;;
14205;SDS011;7186;48.800;9.216;2023-06-22T10:01:23;10.97;;;6.40;;
14205;SDS011;7186;48.800;9.216;2023-06-22T10:03:48;14.30;;;6.47;;
14205;SDS011;7186;48.800;9.216;2023-06-22T10:06:15;12.50;;;5.63;;
14205;SDS011;7186;48.800;9.216;2023-06-22T10:08:40;10.23;;;6.00;;
14205;SDS011;7186;48.800;9.216;2023-06-22T10:11:07;15.27;;;6.73;;
14205;SDS011;7186;48.800;9.216;2023-06-22T10:13:32;10.50;;;6.03;;
14205;SDS011;7186;48.800;9.216;2023-06-22T10:15:57;8.93;;;6.43;;
14205;SDS011;7186;48.800;9.216;2023-06-22T10:18:22;12.43;;;6.67;;
14205;SDS011;7186;48.800;9.216;2023-06-22T10:20:50;9.47;;;6.43;;
14205;SDS011;7186;48.800;9.216;2023-06-22T10:23:19;13.43;;;8.40;;
14205;SDS011;7186;48.800;9.216;2023-06-22T10:25:45;13.40;;;7.00;;
14205;SDS011;7186;48.800;9.216;2023-06-22T10:28:10;12.90;;;6.37;;
14205;SDS011;7186;48.800;9.216;2023-06-22T10:30:37;13.17;;;6.87;;
14205;SDS011;7186;48.800;9.216;2023-06-22T10:33:02;11.93;;;6.37;;
14205;SDS011;7186;48.800;9.216;2023-06-22T10:35:28;10.43;;;6.30;;
14205;SDS011;7186;48.800;9.216;2023-06-22T10:37:53;11.00;;;6.57;;
14205;SDS011;7186;48.800;9.216;2023-06-22T10:40:19;14.30;;;6.87;;
14205;SDS011;7186;48.800;9.216;2023-06-22T10:42:44;12.87;;;6.63;;
14205;SDS011;7186;48.800;9.216;2023-06-22T10:45:10;10.93;;;7.40;;
14205;SDS011;7186;48.800;9.216;2023-06-22T10:47:35;10.40;;;6.40;;
14205;SDS011;7186;48.800;9.216;2023-06-22T10:50:01;9.37;;;6.43;;
14205;SDS011;7186;48.800;9.216;2023-06-22T10:52:26;14.90;;;6.80;;
14205;SDS011;7186;48.800;9.216;2023-06-22T10:54:51;12.53;;;6.63;;
14205;SDS011;7186;48.800;9.216;2023-06-22T10:57:17;13.80;;;6.63;;
14205;SDS011;7186;48.800;9.216;2023-06-22T10:59:42;12.07;;;6.37;;
14205;SDS011;7186;48.800;9.216;2023-06-22T11:02:08;11.60;;;6.13;;
14205;SDS011;7186;48.800;9.216;2023-06-22T11:04:33;11.97;;;6.70;;
14205;SDS011;7186;48.800;9.216;2023-06-22T11:06:59;11.87;;;6.27;;
14205;SDS011;7186;48.800;9.216;2023-06-22T11:09:24;12.43;;;6.50;;
14205;SDS011;7186;48.800;9.216;2023-06-22T11:11:50;11.43;;;7.07;;
14205;SDS011;7186;48.800;9.216;2023-06-22T11:14:16;9.03;;;6.87;;
14205;SDS011;7186;48.800;9.216;2023-06-22T11:16:41;12.47;;;6.50;;
14205;SDS011;7186;48.800;9.216;2023-06-22T11:19:06;15.07;;;6.20;;
14205;SDS011;7186;48.800;9.216;2023-06-22T11:21:31;13.00;;;6.60;;
14205;SDS011;7186;48.800;9.216;2023-06-22T11:23:57;9.93;;;6.53;;
14205;SDS011;7186;48.800;9.216;2023-06-22T11:26:23;14.77;;;7.90;;
14205;SDS011;7186;48.800;9.216;2023-06-22T11:28:49;16.67;;;6.77;;
14205;SDS011;7186;48.800;9.216;2023-06-22T11:31:14;9.17;;;6.20;;
14205;SDS011;7186;48.800;9.216;2023-06-22T11:33:40;10.17;;;6.23;;
14205;SDS011;7186;48.800;9.216;2023-06-22T11:36:05;11.63;;;6.10;;
14205;SDS011;7186;48.800;9.216;2023-06-22T11:38:30;11.97;;;8.00;;
14205;SDS011;7186;48.800;9.216;2023-06-22T11:40:55;9.53;;;5.90;;
14205;SDS011;7186;48.800;9.216;2023-06-22T11:43:21;14.80;;;6.73;;
14205;SDS011;7186;48.800;9.216;2023-06-22T11:45:46;13.47;;;7.20;;
14205;SDS011;7186;48.800;9.216;2023-06-22T11:48:11;11.90;;;6.63;;
14205;SDS011;7186;48.800;9.216;2023-06-22T11:50:36;15.93;;;6.77;;
14205;SDS011;7186;48.800;9.216;2023-06-22T11:53:02;16.47;;;6.83;;
14205;SDS011;7186;48.800;9.216;2023-06-22T11:55:28;15.83;;;7.37;;
14205;SDS011;7186;48.800;9.216;2023-06-22T11:57:57;11.47;;;6.77;;
14205;SDS011;7186;48.800;9.216;2023-06-22T12:00:24;13.63;;;7.33;;
14205;SDS011;7186;48.800;9.216;2023-06-22T12:02:50;16.87;;;7.17;;
14205;SDS011;7186;48.800;9.216;2023-06-22T12:05:19;12.07;;;7.03;;
14205;SDS011;7186;48.800;9.216;2023-06-22T12:07:47;11.83;;;6.90;;
14205;SDS011;7186;48.800;9.216;2023-06-22T12:10:12;13.73;;;7.07;;
14205;SDS011;7186;48.800;9.216;2023-06-22T12:12:37;13.13;;;6.63;;
14205;SDS011;7186;48.800;9.216;2023-06-22T12:15:03;16.27;;;7.37;;
14205;SDS011;7186;48.800;9.216;2023-06-22T12:17:29;16.57;;;7.50;;
14205;SDS011;7186;48.800;9.216;2023-06-22T12:19:54;11.27;;;6.80;;
14205;SDS011;7186;48.800;9.216;2023-06-22T12:22:19;12.47;;;6.67;;
14205;SDS011;7186;48.800;9.216;2023-06-22T12:24:46;15.00;;;7.37;;
14205;SDS011;7186;48.800;9.216;2023-06-22T12:27:11;15.10;;;6.93;;
14205;SDS011;7186;48.800;9.216;2023-06-22T12:29:36;14.53;;;7.10;;
14205;SDS011;7186;48.800;9.216;2023-06-22T12:32:02;12.67;;;7.13;;
14205;SDS011;7186;48.800;9.216;2023-06-22T12:34:27;12.10;;;7.03;;
14205;SDS011;7186;48.800;9.216;2023-06-22T12:36:52;15.83;;;7.37;;
14205;SDS011;7186;48.800;9.216;2023-06-22T12:39:19;15.30;;;7.47;;
14205;SDS011;7186;48.800;9.216;2023-06-22T12:41:44;17.60;;;7.13;;
14205;SDS011;7186;48.800;9.216;2023-06-22T12:44:10;19.43;;;6.77;;
14205;SDS011;7186;48.800;9.216;2023-06-22T12:46:35;14.23;;;7.17;;
14205;SDS011;7186;48.800;9.216;2023-06-22T12:49:03;11.43;;;6.43;;
14205;SDS011;7186;48.800;9.216;2023-06-22T12:51:29;12.43;;;6.77;;
14205;SDS011;7186;48.800;9.216;2023-06-22T12:53:54;13.43;;;6.37;;
14205;SDS011;7186;48.800;9.216;2023-06-22T12:56:19;19.13;;;7.30;;
14205;SDS011;7186;48.800;9.216;2023-06-22T12:58:44;13.07;;;6.90;;
14205;SDS011;7186;48.800;9.216;2023-06-22T13:01:10;14.23;;;7.00;;
14205;SDS011;7186;48.800;9.216;2023-06-22T13:03:35;16.40;;;6.83;;
14205;SDS011;7186;48.800;9.216;2023-06-22T13:06:00;12.47;;;7.33;;
14205;SDS011;7186;48.800;9.216;2023-06-22T13:08:25;19.10;;;6.50;;
14205;SDS011;7186;48.800;9.216;2023-06-22T13:10:51;14.57;;;6.93;;
14205;SDS011;7186;48.800;9.216;2023-06-22T13:13:16;17.80;;;7.17;;
14205;SDS011;7186;48.800;9.216;2023-06-22T13:15:41;13.27;;;7.23;;
14205;SDS011;7186;48.800;9.216;2023-06-22T13:18:07;13.93;;;7.13;;
14205;SDS011;7186;48.800;9.216;2023-06-22T13:20:32;19.77;;;7.60;;
14205;SDS011;7186;48.800;9.216;2023-06-22T13:22:57;12.57;;;6.70;;
14205;SDS011;7186;48.800;9.216;2023-06-22T13:25:22;21.20;;;6.67;;
14205;SDS011;7186;48.800;9.216;2023-06-22T13:27:51;12.07;;;7.03;;
14205;SDS011;7186;48.800;9.216;2023-06-22T13:30:16;21.47;;;8.17;;
14205;SDS011;7186;48.800;9.216;2023-06-22T13:32:41;24.97;;;8.93;;
14205;SDS011;7186;48.800;9.216;2023-06-22T13:35:10;20.07;;;6.97;;
14205;SDS011;7186;48.800;9.216;2023-06-22T13:37:36;22.67;;;7.77;;
14205;SDS011;7186;48.800;9.216;2023-06-22T13:40:01;12.93;;;7.00;;
14205;SDS011;7186;48.800;9.216;2023-06-22T13:42:30;14.53;;;6.90;;
14205;SDS011;7186;48.800;9.216;2023-06-22T13:44:55;10.30;;;6.60;;
14205;SDS011;7186;48.800;9.216;2023-06-22T13:47:20;10.63;;;6.93;;
14205;SDS011;7186;48.800;9.216;2023-06-22T13:49:46;13.53;;;7.30;;
14205;SDS011;7186;48.800;9.216;2023-06-22T13:52:11;12.30;;;7.33;;
14205;SDS011;7186;48.800;9.216;2023-06-22T13:54:37;20.73;;;7.30;;
14205;SDS011;7186;48.800;9.216;2023-06-22T13:57:03;17.00;;;6.93;;
14205;SDS011;7186;48.800;9.216;2023-06-22T13:59:28;14.20;;;6.43;;
14205;SDS011;7186;48.800;9.216;2023-06-22T14:01:55;14.17;;;7.53;;
14205;SDS011;7186;48.800;9.216;2023-06-22T14:04:22;14.90;;;7.30;;
14205;SDS011;7186;48.800;9.216;2023-06-22T14:06:48;14.47;;;7.47;;
14205;SDS011;7186;48.800;9.216;2023-06-22T14:09:13;13.47;;;6.60;;
14205;SDS011;7186;48.800;9.216;2023-06-22T14:11:38;14.60;;;6.87;;
14205;SDS011;7186;48.800;9.216;2023-06-22T14:14:03;11.43;;;6.80;;
14205;SDS011;7186;48.800;9.216;2023-06-22T14:16:29;15.17;;;6.60;;
14205;SDS011;7186;48.800;9.216;2023-06-22T14:18:54;17.80;;;6.73;;
14205;SDS011;7186;48.800;9.216;2023-06-22T14:21:19;19.40;;;6.90;;
14205;SDS011;7186;48.800;9.216;2023-06-22T14:23:44;15.33;;;6.67;;
14205;SDS011;7186;48.800;9.216;2023-06-22T14:26:14;14.20;;;6.60;;
14205;SDS011;7186;48.800;9.216;2023-06-22T14:28:39;13.23;;;6.53;;
14205;SDS011;7186;48.800;9.216;2023-06-22T14:31:06;14.97;;;6.83;;
14205;SDS011;7186;48.800;9.216;2023-06-22T14:33:31;16.83;;;6.10;;
14205;SDS011;7186;48.800;9.216;2023-06-22T14:35:58;11.23;;;6.57;;
14205;SDS011;7186;48.800;9.216;2023-06-22T14:38:23;13.80;;;6.53;;
14205;SDS011;7186;48.800;9.216;2023-06-22T14:40:48;13.47;;;6.80;;
14205;SDS011;7186;48.800;9.216;2023-06-22T14:43:14;11.73;;;5.77;;
14205;SDS011;7186;48.800;9.216;2023-06-22T14:45:39;11.87;;;5.60;;
14205;SDS011;7186;48.800;9.216;2023-06-22T14:48:05;13.63;;;5.13;;